sensor_id;sensor_type;location;lat;lon;timestamp;P1;durP1;ratioP1;P2;durP2;ratioP2
261;SDS011;114;48.260;10.988;2023-02-13T00:00:54;62.77;;;18.73;;
261;SDS011;114;48.260;10.988;2023-02-13T00:03:19;43.90;;;17.17;;
261;SDS011;114;48.260;10.988;2023-02-13T00:05:45;50.10;;;17.70;;
261;SDS011;114;48.260;10.988;2023-02-13T00:08:11;51.73;;;18.70;;
261;SDS011;114;48.260;10.988;2023-02-13T00:10:37;32.50;;;15.60;;
261;SDS011;114;48.260;10.988;2023-02-13T00:13:03;50.00;;;18.23;;
261;SDS011;114;48.260;10.988;2023-02-13T00:15:28;46.17;;;15.97;;
261;SDS011;114;48.260;10.988;2023-02-13T00:17:54;34.30;;;17.47;;
261;SDS011;114;48.260;10.988;2023-02-13T00:20:20;59.27;;;16.20;;
261;SDS011;114;48.260;10.988;2023-02-13T00:22:46;100.70;;;19.27;;
261;SDS011;114;48.260;10.988;2023-02-13T00:25:11;49.23;;;16.57;;
261;SDS011;114;48.260;10.988;2023-02-13T00:27:37;56.77;;;17.13;;
261;SDS011;114;48.260;10.988;2023-02-13T00:30:03;49.93;;;16.03;;
261;SDS011;114;48.260;10.988;2023-02-13T00:32:30;146.43;;;20.40;;
261;SDS011;114;48.260;10.988;2023-02-13T00:34:56;103.30;;;20.27;;
261;SDS011;114;48.260;10.988;2023-02-13T00:37:22;50.57;;;18.70;;
261;SDS011;114;48.260;10.988;2023-02-13T00:39:48;63.03;;;17.90;;
261;SDS011;114;48.260;10.988;2023-02-13T00:42:14;88.33;;;19.23;;
261;SDS011;114;48.260;10.988;2023-02-13T00:44:40;50.83;;;16.60;;
261;SDS011;114;48.260;10.988;2023-02-13T00:47:05;88.23;;;17.77;;
261;SDS011;114;48.260;10.988;2023-02-13T00:49:31;39.77;;;17.30;;
261;SDS011;114;48.260;10.988;2023-02-13T00:51:57;42.90;;;17.33;;
261;SDS011;114;48.260;10.988;2023-02-13T00:54:23;60.57;;;18.27;;
261;SDS011;114;48.260;10.988;2023-02-13T00:56:48;51.83;;;17.20;;
261;SDS011;114;48.260;10.988;2023-02-13T00:59:14;66.47;;;17.10;;
261;SDS011;114;48.260;10.988;2023-02-13T01:01:41;116.47;;;19.50;;
261;SDS011;114;48.260;10.988;2023-02-13T01:04:07;50.27;;;19.17;;
261;SDS011;114;48.260;10.988;2023-02-13T01:06:33;66.00;;;18.90;;
261;SDS011;114;48.260;10.988;2023-02-13T01:08:59;61.60;;;17.93;;
261;SDS011;114;48.260;10.988;2023-02-13T01:11:26;97.70;;;18.53;;
261;SDS011;114;48.260;10.988;2023-02-13T01:13:52;65.13;;;17.27;;
261;SDS011;114;48.260;10.988;2023-02-13T01:16:18;69.23;;;19.03;;
261;SDS011;114;48.260;10.988;2023-02-13T01:18:44;125.37;;;20.67;;
261;SDS011;114;48.260;10.988;2023-02-13T01:21:14;129.27;;;20.37;;
261;SDS011;114;48.260;10.988;2023-02-13T01:23:45;37.43;;;19.40;;
261;SDS011;114;48.260;10.988;2023-02-13T01:26:32;72.57;;;21.10;;
261;SDS011;114;48.260;10.988;2023-02-13T01:28:57;42.83;;;18.70;;
261;SDS011;114;48.260;10.988;2023-02-13T01:31:23;86.97;;;19.60;;
261;SDS011;114;48.260;10.988;2023-02-13T01:33:49;69.23;;;19.83;;
261;SDS011;114;48.260;10.988;2023-02-13T01:36:15;54.83;;;19.77;;
261;SDS011;114;48.260;10.988;2023-02-13T01:38:41;59.57;;;20.60;;
261;SDS011;114;48.260;10.988;2023-02-13T01:41:07;73.43;;;19.70;;
261;SDS011;114;48.260;10.988;2023-02-13T01:43:43;44.50;;;19.63;;
261;SDS011;114;48.260;10.988;2023-02-13T01:46:13;51.40;;;19.47;;
261;SDS011;114;48.260;10.988;2023-02-13T01:48:43;61.80;;;19.70;;
261;SDS011;114;48.260;10.988;2023-02-13T01:51:12;69.40;;;19.57;;
261;SDS011;114;48.260;10.988;2023-02-13T01:58:46;91.23;;;20.40;;
261;SDS011;114;48.260;10.988;2023-02-13T02:01:15;42.23;;;19.97;;
261;SDS011;114;48.260;10.988;2023-02-13T02:06:11;47.83;;;21.50;;
261;SDS011;114;48.260;10.988;2023-02-13T02:08:43;95.07;;;21.30;;
261;SDS011;114;48.260;10.988;2023-02-13T02:11:12;126.43;;;22.13;;
261;SDS011;114;48.260;10.988;2023-02-13T02:13:46;92.40;;;20.47;;
261;SDS011;114;48.260;10.988;2023-02-13T02:16:13;94.43;;;21.17;;
261;SDS011;114;48.260;10.988;2023-02-13T02:18:39;76.20;;;19.17;;
261;SDS011;114;48.260;10.988;2023-02-13T02:23:52;52.23;;;19.50;;
261;SDS011;114;48.260;10.988;2023-02-13T02:35:00;70.50;;;19.33;;
261;SDS011;114;48.260;10.988;2023-02-13T02:40:19;89.23;;;20.10;;
261;SDS011;114;48.260;10.988;2023-02-13T02:42:51;93.03;;;20.93;;
261;SDS011;114;48.260;10.988;2023-02-13T02:45:28;35.23;;;18.33;;
261;SDS011;114;48.260;10.988;2023-02-13T02:48:25;36.87;;;17.90;;
261;SDS011;114;48.260;10.988;2023-02-13T02:54:09;103.40;;;21.40;;
261;SDS011;114;48.260;10.988;2023-02-13T02:57:13;56.67;;;18.37;;
261;SDS011;114;48.260;10.988;2023-02-13T02:59:47;67.97;;;19.67;;
261;SDS011;114;48.260;10.988;2023-02-13T03:02:32;102.53;;;21.63;;
261;SDS011;114;48.260;10.988;2023-02-13T03:05:25;41.60;;;18.83;;
261;SDS011;114;48.260;10.988;2023-02-13T03:08:13;98.50;;;20.23;;
261;SDS011;114;48.260;10.988;2023-02-13T03:10:39;55.63;;;20.43;;
261;SDS011;114;48.260;10.988;2023-02-13T03:13:33;66.10;;;18.43;;
261;SDS011;114;48.260;10.988;2023-02-13T03:16:09;57.80;;;19.50;;
261;SDS011;114;48.260;10.988;2023-02-13T03:18:58;65.50;;;18.80;;
261;SDS011;114;48.260;10.988;2023-02-13T03:21:46;103.37;;;21.30;;
261;SDS011;114;48.260;10.988;2023-02-13T03:24:44;45.27;;;18.23;;
261;SDS011;114;48.260;10.988;2023-02-13T03:30:29;42.27;;;18.73;;
261;SDS011;114;48.260;10.988;2023-02-13T03:38:39;43.57;;;17.23;;
261;SDS011;114;48.260;10.988;2023-02-13T03:41:18;42.97;;;17.33;;
261;SDS011;114;48.260;10.988;2023-02-13T03:46:28;55.23;;;18.30;;
261;SDS011;114;48.260;10.988;2023-02-13T03:48:57;52.80;;;19.20;;
261;SDS011;114;48.260;10.988;2023-02-13T03:54:18;58.30;;;17.60;;
261;SDS011;114;48.260;10.988;2023-02-13T03:57:23;43.67;;;17.50;;
261;SDS011;114;48.260;10.988;2023-02-13T04:00:10;53.30;;;17.17;;
261;SDS011;114;48.260;10.988;2023-02-13T04:02:41;35.00;;;16.53;;
261;SDS011;114;48.260;10.988;2023-02-13T04:05:16;45.43;;;18.97;;
261;SDS011;114;48.260;10.988;2023-02-13T04:07:48;39.80;;;18.83;;
261;SDS011;114;48.260;10.988;2023-02-13T04:10:15;32.80;;;16.50;;
261;SDS011;114;48.260;10.988;2023-02-13T04:15:16;38.83;;;18.20;;
261;SDS011;114;48.260;10.988;2023-02-13T04:17:51;53.00;;;16.90;;
261;SDS011;114;48.260;10.988;2023-02-13T04:20:31;40.87;;;16.17;;
261;SDS011;114;48.260;10.988;2023-02-13T04:23:02;37.10;;;17.43;;
261;SDS011;114;48.260;10.988;2023-02-13T04:25:32;35.53;;;15.20;;
261;SDS011;114;48.260;10.988;2023-02-13T04:27:58;33.53;;;15.67;;
261;SDS011;114;48.260;10.988;2023-02-13T04:30:24;45.90;;;15.90;;
261;SDS011;114;48.260;10.988;2023-02-13T04:32:50;30.27;;;16.57;;
261;SDS011;114;48.260;10.988;2023-02-13T04:35:16;34.50;;;16.20;;
261;SDS011;114;48.260;10.988;2023-02-13T04:37:43;41.73;;;16.27;;
261;SDS011;114;48.260;10.988;2023-02-13T04:40:08;57.83;;;17.13;;
261;SDS011;114;48.260;10.988;2023-02-13T04:42:35;60.43;;;17.53;;
261;SDS011;114;48.260;10.988;2023-02-13T04:45:00;91.17;;;18.17;;
261;SDS011;114;48.260;10.988;2023-02-13T04:47:26;40.53;;;17.77;;
261;SDS011;114;48.260;10.988;2023-02-13T04:49:53;34.27;;;17.07;;
261;SDS011;114;48.260;10.988;2023-02-13T04:52:19;58.00;;;18.63;;
261;SDS011;114;48.260;10.988;2023-02-13T04:54:44;46.60;;;18.03;;
261;SDS011;114;48.260;10.988;2023-02-13T04:57:10;84.57;;;17.97;;
261;SDS011;114;48.260;10.988;2023-02-13T04:59:36;41.50;;;17.07;;
261;SDS011;114;48.260;10.988;2023-02-13T05:02:02;46.03;;;18.30;;
261;SDS011;114;48.260;10.988;2023-02-13T05:04:27;71.67;;;20.70;;
261;SDS011;114;48.260;10.988;2023-02-13T05:06:53;51.47;;;18.07;;
261;SDS011;114;48.260;10.988;2023-02-13T05:09:19;64.73;;;18.80;;
261;SDS011;114;48.260;10.988;2023-02-13T05:11:45;40.83;;;19.00;;
261;SDS011;114;48.260;10.988;2023-02-13T05:14:11;132.20;;;21.17;;
261;SDS011;114;48.260;10.988;2023-02-13T05:16:37;48.53;;;17.37;;
261;SDS011;114;48.260;10.988;2023-02-13T05:19:02;44.33;;;18.67;;
261;SDS011;114;48.260;10.988;2023-02-13T05:21:28;75.30;;;19.30;;
261;SDS011;114;48.260;10.988;2023-02-13T05:24:12;42.17;;;17.33;;
261;SDS011;114;48.260;10.988;2023-02-13T05:26:38;59.27;;;18.77;;
261;SDS011;114;48.260;10.988;2023-02-13T05:29:04;50.63;;;19.20;;
261;SDS011;114;48.260;10.988;2023-02-13T05:31:47;77.57;;;17.93;;
261;SDS011;114;48.260;10.988;2023-02-13T05:34:20;60.60;;;18.73;;
261;SDS011;114;48.260;10.988;2023-02-13T05:36:48;49.27;;;18.40;;
261;SDS011;114;48.260;10.988;2023-02-13T05:39:15;109.77;;;20.13;;
261;SDS011;114;48.260;10.988;2023-02-13T05:41:44;45.53;;;19.57;;
261;SDS011;114;48.260;10.988;2023-02-13T05:44:13;60.77;;;19.97;;
261;SDS011;114;48.260;10.988;2023-02-13T05:46:39;88.33;;;18.87;;
261;SDS011;114;48.260;10.988;2023-02-13T05:49:07;55.40;;;20.13;;
261;SDS011;114;48.260;10.988;2023-02-13T05:51:33;72.87;;;20.43;;
261;SDS011;114;48.260;10.988;2023-02-13T05:53:59;54.03;;;17.97;;
261;SDS011;114;48.260;10.988;2023-02-13T05:56:25;53.83;;;19.53;;
261;SDS011;114;48.260;10.988;2023-02-13T05:58:51;104.60;;;19.30;;
261;SDS011;114;48.260;10.988;2023-02-13T06:01:18;126.90;;;23.63;;
261;SDS011;114;48.260;10.988;2023-02-13T06:03:44;42.50;;;18.43;;
261;SDS011;114;48.260;10.988;2023-02-13T06:06:10;70.73;;;19.87;;
261;SDS011;114;48.260;10.988;2023-02-13T06:08:35;66.13;;;19.37;;
261;SDS011;114;48.260;10.988;2023-02-13T06:11:03;50.73;;;19.53;;
261;SDS011;114;48.260;10.988;2023-02-13T06:13:29;45.00;;;18.80;;
261;SDS011;114;48.260;10.988;2023-02-13T06:15:55;64.93;;;18.70;;
261;SDS011;114;48.260;10.988;2023-02-13T06:18:21;59.73;;;19.60;;
261;SDS011;114;48.260;10.988;2023-02-13T06:20:47;122.30;;;18.97;;
261;SDS011;114;48.260;10.988;2023-02-13T06:23:13;57.53;;;18.80;;
261;SDS011;114;48.260;10.988;2023-02-13T06:25:38;68.37;;;18.20;;
261;SDS011;114;48.260;10.988;2023-02-13T06:28:04;82.87;;;19.83;;
261;SDS011;114;48.260;10.988;2023-02-13T06:30:30;48.70;;;18.97;;
261;SDS011;114;48.260;10.988;2023-02-13T06:32:57;63.67;;;18.40;;
261;SDS011;114;48.260;10.988;2023-02-13T06:35:23;79.97;;;20.97;;
261;SDS011;114;48.260;10.988;2023-02-13T06:37:49;79.13;;;19.70;;
261;SDS011;114;48.260;10.988;2023-02-13T06:40:14;49.30;;;18.87;;
261;SDS011;114;48.260;10.988;2023-02-13T06:42:41;63.33;;;18.47;;
261;SDS011;114;48.260;10.988;2023-02-13T06:45:08;59.33;;;18.13;;
261;SDS011;114;48.260;10.988;2023-02-13T06:47:33;56.47;;;17.13;;
261;SDS011;114;48.260;10.988;2023-02-13T06:49:59;77.63;;;20.37;;
261;SDS011;114;48.260;10.988;2023-02-13T06:52:25;101.97;;;21.17;;
261;SDS011;114;48.260;10.988;2023-02-13T06:54:51;104.63;;;19.77;;
261;SDS011;114;48.260;10.988;2023-02-13T06:57:17;64.17;;;18.47;;
261;SDS011;114;48.260;10.988;2023-02-13T06:59:43;54.37;;;18.47;;
261;SDS011;114;48.260;10.988;2023-02-13T07:02:11;89.07;;;18.60;;
261;SDS011;114;48.260;10.988;2023-02-13T07:04:38;167.10;;;20.53;;
261;SDS011;114;48.260;10.988;2023-02-13T07:07:03;56.23;;;18.90;;
261;SDS011;114;48.260;10.988;2023-02-13T07:09:30;71.60;;;20.00;;
261;SDS011;114;48.260;10.988;2023-02-13T07:11:56;99.83;;;18.53;;
261;SDS011;114;48.260;10.988;2023-02-13T07:14:22;81.13;;;20.00;;
261;SDS011;114;48.260;10.988;2023-02-13T07:16:48;60.73;;;19.60;;
261;SDS011;114;48.260;10.988;2023-02-13T07:19:13;74.07;;;19.30;;
261;SDS011;114;48.260;10.988;2023-02-13T07:21:39;58.60;;;17.93;;
261;SDS011;114;48.260;10.988;2023-02-13T07:24:05;88.77;;;18.40;;
261;SDS011;114;48.260;10.988;2023-02-13T07:26:31;54.97;;;21.03;;
261;SDS011;114;48.260;10.988;2023-02-13T07:28:57;80.27;;;19.50;;
261;SDS011;114;48.260;10.988;2023-02-13T07:31:22;87.27;;;18.20;;
261;SDS011;114;48.260;10.988;2023-02-13T07:33:48;44.33;;;18.47;;
261;SDS011;114;48.260;10.988;2023-02-13T07:36:14;57.40;;;18.70;;
261;SDS011;114;48.260;10.988;2023-02-13T07:38:40;53.17;;;19.80;;
261;SDS011;114;48.260;10.988;2023-02-13T07:41:06;48.20;;;17.90;;
261;SDS011;114;48.260;10.988;2023-02-13T07:43:32;48.73;;;19.53;;
261;SDS011;114;48.260;10.988;2023-02-13T07:45:59;66.90;;;19.17;;
261;SDS011;114;48.260;10.988;2023-02-13T07:48:25;65.27;;;18.07;;
261;SDS011;114;48.260;10.988;2023-02-13T07:50:52;48.43;;;18.90;;
261;SDS011;114;48.260;10.988;2023-02-13T07:53:18;53.73;;;17.77;;
261;SDS011;114;48.260;10.988;2023-02-13T07:55:44;45.67;;;20.20;;
261;SDS011;114;48.260;10.988;2023-02-13T07:58:10;43.37;;;19.50;;
261;SDS011;114;48.260;10.988;2023-02-13T08:00:35;47.37;;;18.40;;
261;SDS011;114;48.260;10.988;2023-02-13T08:03:01;38.53;;;19.00;;
261;SDS011;114;48.260;10.988;2023-02-13T08:05:27;45.70;;;18.93;;
261;SDS011;114;48.260;10.988;2023-02-13T08:07:55;41.13;;;19.00;;
261;SDS011;114;48.260;10.988;2023-02-13T08:10:20;36.20;;;18.70;;
261;SDS011;114;48.260;10.988;2023-02-13T08:13:05;30.60;;;16.43;;
261;SDS011;114;48.260;10.988;2023-02-13T08:15:32;33.77;;;16.93;;
261;SDS011;114;48.260;10.988;2023-02-13T08:17:58;28.27;;;14.77;;
261;SDS011;114;48.260;10.988;2023-02-13T08:20:24;31.40;;;16.87;;
261;SDS011;114;48.260;10.988;2023-02-13T08:22:50;38.20;;;15.57;;
261;SDS011;114;48.260;10.988;2023-02-13T08:25:16;34.00;;;17.47;;
261;SDS011;114;48.260;10.988;2023-02-13T08:27:43;31.53;;;17.07;;
261;SDS011;114;48.260;10.988;2023-02-13T08:30:10;29.43;;;15.97;;
261;SDS011;114;48.260;10.988;2023-02-13T08:32:37;30.70;;;15.47;;
261;SDS011;114;48.260;10.988;2023-02-13T08:35:03;27.60;;;16.17;;
261;SDS011;114;48.260;10.988;2023-02-13T08:37:28;32.70;;;15.80;;
261;SDS011;114;48.260;10.988;2023-02-13T08:39:54;31.90;;;16.63;;
261;SDS011;114;48.260;10.988;2023-02-13T08:42:20;32.30;;;16.80;;
261;SDS011;114;48.260;10.988;2023-02-13T08:44:46;32.57;;;15.27;;
261;SDS011;114;48.260;10.988;2023-02-13T08:47:11;29.13;;;15.57;;
261;SDS011;114;48.260;10.988;2023-02-13T08:49:37;31.53;;;15.70;;
261;SDS011;114;48.260;10.988;2023-02-13T08:52:03;29.27;;;16.87;;
261;SDS011;114;48.260;10.988;2023-02-13T08:54:29;26.70;;;15.20;;
261;SDS011;114;48.260;10.988;2023-02-13T08:56:57;26.33;;;15.63;;
261;SDS011;114;48.260;10.988;2023-02-13T08:59:23;28.53;;;15.50;;
261;SDS011;114;48.260;10.988;2023-02-13T09:01:49;36.13;;;16.40;;
261;SDS011;114;48.260;10.988;2023-02-13T09:04:14;40.37;;;15.20;;
261;SDS011;114;48.260;10.988;2023-02-13T09:06:42;26.27;;;15.47;;
261;SDS011;114;48.260;10.988;2023-02-13T09:09:08;26.40;;;14.73;;
261;SDS011;114;48.260;10.988;2023-02-13T09:11:34;25.90;;;14.73;;
261;SDS011;114;48.260;10.988;2023-02-13T09:14:00;21.83;;;13.63;;
261;SDS011;114;48.260;10.988;2023-02-13T09:16:26;24.70;;;14.77;;
261;SDS011;114;48.260;10.988;2023-02-13T09:18:52;27.47;;;15.33;;
261;SDS011;114;48.260;10.988;2023-02-13T09:21:19;38.20;;;15.40;;
261;SDS011;114;48.260;10.988;2023-02-13T09:23:46;25.70;;;14.10;;
261;SDS011;114;48.260;10.988;2023-02-13T09:26:13;26.43;;;14.73;;
261;SDS011;114;48.260;10.988;2023-02-13T09:28:40;26.27;;;15.53;;
261;SDS011;114;48.260;10.988;2023-02-13T09:33:36;21.17;;;14.60;;
261;SDS011;114;48.260;10.988;2023-02-13T09:36:03;23.90;;;14.60;;
261;SDS011;114;48.260;10.988;2023-02-13T09:38:32;28.20;;;15.77;;
261;SDS011;114;48.260;10.988;2023-02-13T09:41:03;33.13;;;17.33;;
261;SDS011;114;48.260;10.988;2023-02-13T09:43:35;26.53;;;16.40;;
261;SDS011;114;48.260;10.988;2023-02-13T09:46:10;28.03;;;16.10;;
261;SDS011;114;48.260;10.988;2023-02-13T09:48:38;25.77;;;16.20;;
261;SDS011;114;48.260;10.988;2023-02-13T09:51:08;22.23;;;14.93;;
261;SDS011;114;48.260;10.988;2023-02-13T09:53:40;30.07;;;17.03;;
261;SDS011;114;48.260;10.988;2023-02-13T09:56:17;30.37;;;16.13;;
261;SDS011;114;48.260;10.988;2023-02-13T09:58:58;30.70;;;16.30;;
261;SDS011;114;48.260;10.988;2023-02-13T10:01:35;25.43;;;17.30;;
261;SDS011;114;48.260;10.988;2023-02-13T10:04:23;37.63;;;16.60;;
261;SDS011;114;48.260;10.988;2023-02-13T10:07:15;30.83;;;17.03;;
261;SDS011;114;48.260;10.988;2023-02-13T10:09:51;25.90;;;16.80;;
261;SDS011;114;48.260;10.988;2023-02-13T10:15:25;27.17;;;16.67;;
261;SDS011;114;48.260;10.988;2023-02-13T10:18:03;24.57;;;15.50;;
261;SDS011;114;48.260;10.988;2023-02-13T10:26:18;28.17;;;17.33;;
261;SDS011;114;48.260;10.988;2023-02-13T10:28:57;24.57;;;15.77;;
261;SDS011;114;48.260;10.988;2023-02-13T10:31:50;22.17;;;15.00;;
261;SDS011;114;48.260;10.988;2023-02-13T10:34:20;22.77;;;15.13;;
261;SDS011;114;48.260;10.988;2023-02-13T10:36:49;20.20;;;14.10;;
261;SDS011;114;48.260;10.988;2023-02-13T10:41:52;30.50;;;17.10;;
261;SDS011;114;48.260;10.988;2023-02-13T10:44:40;27.70;;;16.87;;
261;SDS011;114;48.260;10.988;2023-02-13T10:50:35;33.27;;;17.60;;
261;SDS011;114;48.260;10.988;2023-02-13T10:56:22;23.40;;;16.30;;
261;SDS011;114;48.260;10.988;2023-02-13T10:59:01;23.07;;;15.60;;
261;SDS011;114;48.260;10.988;2023-02-13T11:04:27;21.57;;;14.80;;
261;SDS011;114;48.260;10.988;2023-02-13T11:09:21;25.17;;;14.83;;
261;SDS011;114;48.260;10.988;2023-02-13T11:11:49;26.07;;;16.33;;
261;SDS011;114;48.260;10.988;2023-02-13T11:14:16;24.00;;;16.00;;
261;SDS011;114;48.260;10.988;2023-02-13T11:16:56;21.90;;;14.10;;
261;SDS011;114;48.260;10.988;2023-02-13T11:22:13;24.13;;;15.93;;
261;SDS011;114;48.260;10.988;2023-02-13T11:24:51;22.63;;;14.93;;
261;SDS011;114;48.260;10.988;2023-02-13T11:27:26;24.47;;;16.10;;
261;SDS011;114;48.260;10.988;2023-02-13T11:30:05;25.00;;;16.63;;
261;SDS011;114;48.260;10.988;2023-02-13T11:33:26;26.40;;;16.67;;
261;SDS011;114;48.260;10.988;2023-02-13T11:35:48;25.17;;;16.03;;
261;SDS011;114;48.260;10.988;2023-02-13T11:40:43;22.70;;;16.00;;
261;SDS011;114;48.260;10.988;2023-02-13T11:43:30;23.97;;;16.20;;
261;SDS011;114;48.260;10.988;2023-02-13T11:48:29;22.10;;;15.57;;
261;SDS011;114;48.260;10.988;2023-02-13T11:50:56;24.67;;;16.17;;
261;SDS011;114;48.260;10.988;2023-02-13T11:53:23;29.70;;;16.83;;
261;SDS011;114;48.260;10.988;2023-02-13T11:56:05;22.10;;;15.50;;
261;SDS011;114;48.260;10.988;2023-02-13T11:58:31;24.40;;;16.50;;
261;SDS011;114;48.260;10.988;2023-02-13T12:01:07;22.90;;;16.70;;
261;SDS011;114;48.260;10.988;2023-02-13T12:03:34;25.23;;;15.23;;
261;SDS011;114;48.260;10.988;2023-02-13T12:06:01;23.43;;;16.53;;
261;SDS011;114;48.260;10.988;2023-02-13T12:08:40;27.37;;;17.83;;
261;SDS011;114;48.260;10.988;2023-02-13T12:11:33;24.13;;;16.10;;
261;SDS011;114;48.260;10.988;2023-02-13T12:14:00;24.60;;;16.23;;
261;SDS011;114;48.260;10.988;2023-02-13T12:19:02;27.27;;;17.57;;
261;SDS011;114;48.260;10.988;2023-02-13T12:24:21;30.30;;;18.57;;
261;SDS011;114;48.260;10.988;2023-02-13T12:26:53;26.53;;;17.30;;
261;SDS011;114;48.260;10.988;2023-02-13T12:29:52;30.30;;;18.43;;
261;SDS011;114;48.260;10.988;2023-02-13T12:37:59;26.40;;;16.20;;
261;SDS011;114;48.260;10.988;2023-02-13T12:40:39;29.10;;;18.07;;
261;SDS011;114;48.260;10.988;2023-02-13T12:49:04;23.30;;;16.13;;
261;SDS011;114;48.260;10.988;2023-02-13T12:52:01;21.97;;;16.60;;
261;SDS011;114;48.260;10.988;2023-02-13T13:06:02;25.50;;;16.07;;
261;SDS011;114;48.260;10.988;2023-02-13T13:28:22;22.20;;;16.53;;
261;SDS011;114;48.260;10.988;2023-02-13T13:30:58;26.40;;;18.00;;
261;SDS011;114;48.260;10.988;2023-02-13T13:33:25;24.10;;;16.93;;
261;SDS011;114;48.260;10.988;2023-02-13T13:38:52;30.00;;;19.10;;
261;SDS011;114;48.260;10.988;2023-02-13T13:41:31;30.73;;;17.00;;
261;SDS011;114;48.260;10.988;2023-02-13T13:54:59;31.43;;;19.30;;
261;SDS011;114;48.260;10.988;2023-02-13T14:02:47;32.23;;;20.17;;
261;SDS011;114;48.260;10.988;2023-02-13T14:13:31;35.30;;;20.17;;
261;SDS011;114;48.260;10.988;2023-02-13T14:16:13;35.57;;;20.57;;
261;SDS011;114;48.260;10.988;2023-02-13T14:19:01;39.47;;;21.70;;
261;SDS011;114;48.260;10.988;2023-02-13T14:21:28;41.03;;;21.57;;
261;SDS011;114;48.260;10.988;2023-02-13T14:23:54;39.10;;;20.50;;
261;SDS011;114;48.260;10.988;2023-02-13T14:28:59;40.70;;;20.77;;
261;SDS011;114;48.260;10.988;2023-02-13T14:31:42;28.13;;;17.70;;
261;SDS011;114;48.260;10.988;2023-02-13T14:34:26;30.30;;;19.20;;
261;SDS011;114;48.260;10.988;2023-02-13T14:37:37;31.13;;;18.87;;
261;SDS011;114;48.260;10.988;2023-02-13T14:42:36;33.03;;;17.67;;
261;SDS011;114;48.260;10.988;2023-02-13T14:45:03;28.63;;;17.40;;
261;SDS011;114;48.260;10.988;2023-02-13T14:47:39;34.10;;;20.13;;
261;SDS011;114;48.260;10.988;2023-02-13T14:50:13;28.77;;;16.20;;
261;SDS011;114;48.260;10.988;2023-02-13T14:53:04;31.10;;;18.07;;
261;SDS011;114;48.260;10.988;2023-02-13T14:55:39;31.63;;;18.97;;
261;SDS011;114;48.260;10.988;2023-02-13T14:58:07;29.50;;;17.67;;
261;SDS011;114;48.260;10.988;2023-02-13T15:01:05;34.73;;;18.83;;
261;SDS011;114;48.260;10.988;2023-02-13T15:03:50;37.20;;;18.60;;
261;SDS011;114;48.260;10.988;2023-02-13T15:06:44;31.17;;;19.47;;
261;SDS011;114;48.260;10.988;2023-02-13T15:09:19;30.63;;;18.30;;
261;SDS011;114;48.260;10.988;2023-02-13T15:11:59;28.00;;;17.80;;
261;SDS011;114;48.260;10.988;2023-02-13T15:14:30;29.43;;;17.57;;
261;SDS011;114;48.260;10.988;2023-02-13T15:16:57;34.47;;;19.43;;
261;SDS011;114;48.260;10.988;2023-02-13T15:19:41;30.70;;;19.37;;
261;SDS011;114;48.260;10.988;2023-02-13T15:22:16;27.70;;;17.27;;
261;SDS011;114;48.260;10.988;2023-02-13T15:24:45;27.80;;;18.60;;
261;SDS011;114;48.260;10.988;2023-02-13T15:27:19;31.33;;;18.40;;
261;SDS011;114;48.260;10.988;2023-02-13T15:35:54;34.33;;;19.03;;
261;SDS011;114;48.260;10.988;2023-02-13T15:40:56;39.00;;;19.50;;
261;SDS011;114;48.260;10.988;2023-02-13T15:43:30;33.40;;;20.23;;
261;SDS011;114;48.260;10.988;2023-02-13T15:46:05;34.57;;;18.87;;
261;SDS011;114;48.260;10.988;2023-02-13T15:48:52;33.80;;;20.10;;
261;SDS011;114;48.260;10.988;2023-02-13T15:51:19;30.47;;;19.03;;
261;SDS011;114;48.260;10.988;2023-02-13T15:54:02;33.13;;;19.43;;
261;SDS011;114;48.260;10.988;2023-02-13T15:56:30;30.43;;;18.10;;
261;SDS011;114;48.260;10.988;2023-02-13T15:58:56;32.17;;;18.20;;
261;SDS011;114;48.260;10.988;2023-02-13T16:01:24;29.93;;;18.77;;
261;SDS011;114;48.260;10.988;2023-02-13T16:03:53;32.93;;;18.80;;
261;SDS011;114;48.260;10.988;2023-02-13T16:06:24;29.73;;;18.40;;
261;SDS011;114;48.260;10.988;2023-02-13T16:08:52;32.07;;;19.10;;
261;SDS011;114;48.260;10.988;2023-02-13T16:11:31;29.33;;;18.43;;
261;SDS011;114;48.260;10.988;2023-02-13T16:19:15;34.83;;;19.00;;
261;SDS011;114;48.260;10.988;2023-02-13T16:21:49;36.33;;;21.67;;
261;SDS011;114;48.260;10.988;2023-02-13T16:24:16;37.43;;;19.93;;
261;SDS011;114;48.260;10.988;2023-02-13T16:26:43;40.73;;;20.87;;
261;SDS011;114;48.260;10.988;2023-02-13T16:29:10;37.87;;;19.53;;
261;SDS011;114;48.260;10.988;2023-02-13T16:31:46;35.37;;;20.60;;
261;SDS011;114;48.260;10.988;2023-02-13T16:34:24;34.43;;;20.37;;
261;SDS011;114;48.260;10.988;2023-02-13T16:36:51;32.93;;;20.10;;
261;SDS011;114;48.260;10.988;2023-02-13T16:39:19;37.63;;;20.93;;
261;SDS011;114;48.260;10.988;2023-02-13T16:41:51;44.77;;;20.40;;
261;SDS011;114;48.260;10.988;2023-02-13T16:44:27;29.70;;;18.30;;
261;SDS011;114;48.260;10.988;2023-02-13T16:47:04;35.80;;;18.93;;
261;SDS011;114;48.260;10.988;2023-02-13T16:49:33;36.33;;;18.07;;
261;SDS011;114;48.260;10.988;2023-02-13T16:52:15;35.07;;;20.43;;
261;SDS011;114;48.260;10.988;2023-02-13T16:57:20;31.97;;;19.80;;
261;SDS011;114;48.260;10.988;2023-02-13T17:02:46;40.53;;;20.77;;
261;SDS011;114;48.260;10.988;2023-02-13T17:05:16;36.40;;;19.93;;
261;SDS011;114;48.260;10.988;2023-02-13T17:07:47;37.07;;;21.27;;
261;SDS011;114;48.260;10.988;2023-02-13T17:12:47;31.03;;;18.17;;
261;SDS011;114;48.260;10.988;2023-02-13T17:15:15;34.10;;;20.77;;
261;SDS011;114;48.260;10.988;2023-02-13T17:17:44;40.27;;;23.30;;
261;SDS011;114;48.260;10.988;2023-02-13T17:20:18;40.23;;;21.70;;
261;SDS011;114;48.260;10.988;2023-02-13T17:22:52;37.67;;;22.20;;
261;SDS011;114;48.260;10.988;2023-02-13T17:25:21;40.73;;;21.93;;
261;SDS011;114;48.260;10.988;2023-02-13T17:27:49;37.10;;;21.33;;
261;SDS011;114;48.260;10.988;2023-02-13T17:30:18;38.17;;;22.17;;
261;SDS011;114;48.260;10.988;2023-02-13T17:32:48;39.63;;;22.07;;
261;SDS011;114;48.260;10.988;2023-02-13T17:35:17;53.83;;;23.90;;
261;SDS011;114;48.260;10.988;2023-02-13T17:37:43;40.30;;;23.93;;
261;SDS011;114;48.260;10.988;2023-02-13T17:40:19;47.87;;;22.80;;
261;SDS011;114;48.260;10.988;2023-02-13T17:42:51;44.77;;;23.60;;
261;SDS011;114;48.260;10.988;2023-02-13T17:45:20;36.60;;;21.87;;
261;SDS011;114;48.260;10.988;2023-02-13T17:47:47;42.47;;;22.90;;
261;SDS011;114;48.260;10.988;2023-02-13T17:50:13;45.00;;;25.00;;
261;SDS011;114;48.260;10.988;2023-02-13T17:52:41;39.07;;;24.03;;
261;SDS011;114;48.260;10.988;2023-02-13T17:55:19;60.10;;;25.70;;
261;SDS011;114;48.260;10.988;2023-02-13T17:57:47;43.10;;;24.23;;
261;SDS011;114;48.260;10.988;2023-02-13T18:00:16;43.13;;;23.30;;
261;SDS011;114;48.260;10.988;2023-02-13T18:02:44;52.80;;;24.23;;
261;SDS011;114;48.260;10.988;2023-02-13T18:05:12;36.73;;;23.00;;
261;SDS011;114;48.260;10.988;2023-02-13T18:07:40;44.23;;;23.67;;
261;SDS011;114;48.260;10.988;2023-02-13T18:10:11;43.30;;;24.67;;
261;SDS011;114;48.260;10.988;2023-02-13T18:12:38;49.73;;;24.67;;
261;SDS011;114;48.260;10.988;2023-02-13T18:15:04;48.40;;;23.00;;
261;SDS011;114;48.260;10.988;2023-02-13T18:17:30;41.37;;;24.13;;
261;SDS011;114;48.260;10.988;2023-02-13T18:19:56;42.83;;;24.30;;